Time;durP1;ratioP1;P1;durP2;ratioP2;P2;SDS_P1;SDS_P2;PMS_P1;PMS_P2;Temp;Humidity;BMP_temperature;BMP_pressure;BME280_temperature;BME280_humidity;BME280_pressure;Samples;Min_cycle;Max_cycle;Signal;HPM_P1;HPM_P2
2022/05/31 00:01:37;;;;;;;6.10;3.42;;;12.90;90.40;;;;;;4987499;28;20043;-84
2022/05/31 00:04:03;;;;;;;4.53;2.03;;;13.00;90.40;;;;;;4967752;28;20094;-83
2022/05/31 00:06:30;;;;;;;3.00;1.95;;;13.00;90.40;;;;;;4968061;28;20035;-86
2022/05/31 00:08:56;;;;;;;3.38;2.03;;;13.50;90.50;;;;;;4988769;28;20035;-83
2022/05/31 00:11:22;;;;;;;5.05;1.95;;;15.40;91.10;;;;;;4986617;28;20065;-84
2022/05/31 00:13:48;;;;;;;3.00;2.00;;;13.50;90.60;;;;;;4969893;28;20054;-84
2022/05/31 00:16:13;;;;;;;2.97;1.88;;;13.70;90.80;;;;;;4952029;28;20039;-83
2022/05/31 00:18:39;;;;;;;7.38;3.20;;;14.60;91.10;;;;;;4985509;28;20081;-85
2022/05/31 00:21:07;;;;;;;3.85;2.20;;;14.20;90.80;;;;;;4967639;28;20027;-84
2022/05/31 00:23:35;;;;;;;3.13;2.15;;;14.00;90.80;;;;;;4994071;28;20034;-85
2022/05/31 00:26:00;;;;;;;3.67;2.00;;;13.10;90.70;;;;;;4970478;28;20066;-85
2022/05/31 00:28:26;;;;;;;3.55;1.92;;;14.10;91.10;;;;;;4976789;28;20035;-83
2022/05/31 00:30:53;;;;;;;7.90;2.95;;;14.10;91.20;;;;;;4978756;28;20053;-83
2022/05/31 00:33:19;;;;;;;3.80;2.20;;;12.70;91.00;;;;;;4982130;28;20395;-83
2022/05/31 00:35:49;;;;;;;5.72;3.42;;;12.20;91.00;;;;;;4983198;28;20027;-83
2022/05/31 00:38:16;;;;;;;4.40;2.70;;;12.60;91.10;;;;;;4985150;28;20474;-79
2022/05/31 00:40:41;;;;;;;4.63;2.13;;;12.60;91.10;;;;;;4982837;28;20035;-81
2022/05/31 00:43:10;;;;;;;2.47;1.80;;;11.40;91.00;;;;;;4967601;28;20046;-81
2022/05/31 00:45:42;;;;;;;3.83;2.25;;;12.50;91.30;;;;;;4959755;28;20027;-83
2022/05/31 00:48:31;;;;;;;8.38;3.70;;;12.40;91.40;;;;;;4986397;28;20039;-81
2022/05/31 00:51:08;;;;;;;3.38;2.13;;;12.50;91.50;;;;;;4973101;28;20098;-83
2022/05/31 00:53:49;;;;;;;6.28;2.30;;;12.50;91.40;;;;;;4977787;28;20065;-82
2022/05/31 00:56:22;;;;;;;3.97;2.17;;;12.40;91.40;;;;;;4986162;28;20027;-84
2022/05/31 00:58:52;;;;;;;3.78;1.92;;;12.40;91.40;;;;;;4985273;28;20023;-82
2022/05/31 01:01:18;;;;;;;5.07;2.10;;;12.40;91.50;;;;;;4968688;28;20038;-82
2022/05/31 01:03:44;;;;;;;5.10;2.53;;;12.30;91.50;;;;;;4982467;28;20139;-81
2022/05/31 01:06:11;;;;;;;7.95;3.35;;;12.80;91.80;;;;;;4964333;28;20027;-83
2022/05/31 01:08:41;;;;;;;4.72;2.35;;;12.30;91.70;;;;;;4963928;28;20039;-82
2022/05/31 01:11:08;;;;;;;;;;;12.30;91.70;;;;;;4980519;28;20392;-81
2022/05/31 01:13:33;;;;;;;4.63;2.40;;;11.80;91.60;;;;;;4966554;28;19921;-81
2022/05/31 01:16:10;;;;;;;7.78;3.70;;;12.30;91.70;;;;;;4983240;28;20026;-82
2022/05/31 01:18:37;;;;;;;3.92;2.03;;;12.40;91.70;;;;;;4970072;28;20037;-82
2022/05/31 01:21:03;;;;;;;2.80;1.92;;;12.30;91.70;;;;;;4969590;28;20047;-82
2022/05/31 01:23:43;;;;;;;4.50;1.75;;;12.30;91.70;;;;;;4987450;28;20026;-83
2022/05/31 01:26:16;;;;;;;4.10;2.13;;;12.30;91.70;;;;;;4985269;28;20037;-82
2022/05/31 01:29:00;;;;;;;5.55;2.85;;;12.20;91.80;;;;;;4984691;28;20034;-83
2022/05/31 01:31:39;;;;;;;6.18;2.90;;;12.20;91.80;;;;;;4981511;28;20027;-82
2022/05/31 01:34:29;;;;;;;4.15;1.83;;;12.20;91.80;;;;;;4982144;28;20086;-83
2022/05/31 01:36:57;;;;;;;4.10;2.03;;;12.20;91.80;;;;;;4985716;28;20499;-83
2022/05/31 01:39:25;;;;;;;3.67;1.92;;;12.10;92.00;;;;;;4969321;28;20034;-83
2022/05/31 01:41:59;;;;;;;4.20;1.80;;;12.10;92.10;;;;;;4986144;28;20027;-83
2022/05/31 01:44:30;;;;;;;4.03;1.90;;;12.10;92.00;;;;;;4950997;28;20331;-84
2022/05/31 01:46:59;;;;;;;4.25;2.03;;;12.10;92.00;;;;;;4983990;28;20045;-83
2022/05/31 01:49:30;;;;;;;4.00;1.80;;;12.10;92.10;;;;;;4984725;28;20106;-83
2022/05/31 01:51:56;;;;;;;3.38;1.75;;;12.10;92.20;;;;;;4967717;28;20074;-84
2022/05/31 01:54:22;;;;;;;3.45;1.80;;;12.00;92.10;;;;;;4966473;28;20043;-82
2022/05/31 01:56:55;;;;;;;3.53;2.00;;;12.00;92.20;;;;;;4965083;28;20159;-83
2022/05/31 01:59:21;;;;;;;4.03;2.20;;;12.30;92.30;;;;;;4985398;28;20043;-83
2022/05/31 02:01:47;;;;;;;3.78;1.63;;;13.10;92.50;;;;;;4971112;28;20039;-82
2022/05/31 02:04:17;;;;;;;5.05;1.77;;;12.90;92.50;;;;;;4987346;28;20115;-83
2022/05/31 02:06:43;;;;;;;3.73;1.90;;;12.00;92.30;;;;;;4989821;28;20093;-84
2022/05/31 02:09:12;;;;;;;4.22;2.15;;;12.00;92.30;;;;;;4967802;28;20078;-82
2022/05/31 02:11:39;;;;;;;4.20;2.10;;;12.00;92.30;;;;;;4982581;28;20062;-83
2022/05/31 02:14:06;;;;;;;3.45;1.60;;;11.90;92.50;;;;;;4987460;28;20509;-83
2022/05/31 02:16:33;;;;;;;3.85;2.00;;;11.90;92.40;;;;;;4971010;28;20050;-84
2022/05/31 02:19:23;;;;;;;4.40;2.00;;;12.00;92.30;;;;;;4978290;28;20019;-81
2022/05/31 02:21:50;;;;;;;5.07;2.13;;;12.00;92.50;;;;;;4986276;28;20038;-83
2022/05/31 02:24:16;;;;;;;3.88;1.85;;;12.00;92.20;;;;;;4970238;28;20035;-84
2022/05/31 02:26:43;;;;;;;4.63;1.80;;;12.00;92.20;;;;;;4969356;28;20039;-84
2022/05/31 02:29:15;;;;;;;4.60;1.83;;;12.00;92.20;;;;;;4986767;28;20041;-81
2022/05/31 02:31:41;;;;;;;3.17;1.73;;;12.50;92.40;;;;;;4986223;28;20097;-84
2022/05/31 02:34:08;;;;;;;5.15;2.20;;;11.90;92.30;;;;;;4969730;28;20030;-83
2022/05/31 02:36:34;;;;;;;2.50;1.50;;;11.80;92.40;;;;;;4985525;28;20046;-84
2022/05/31 02:39:00;;;;;;;4.53;2.05;;;13.10;92.90;;;;;;4989792;28;21318;-81
2022/05/31 02:41:29;;;;;;;3.40;1.92;;;12.90;92.90;;;;;;4983215;28;20027;-83
2022/05/31 02:43:55;;;;;;;2.60;1.60;;;11.80;92.70;;;;;;4982950;28;20395;-84
2022/05/31 02:46:22;;;;;;;2.63;1.75;;;11.80;92.70;;;;;;4963263;28;20026;-84
2022/05/31 02:48:47;;;;;;;2.90;1.92;;;13.30;93.10;;;;;;4986723;28;20038;-81
2022/05/31 02:51:13;;;;;;;3.75;2.20;;;13.70;93.20;;;;;;4987116;28;20833;-79
2022/05/31 02:53:40;;;;;;;3.67;1.70;;;12.80;93.10;;;;;;4961453;28;20070;-88
2022/05/31 02:56:06;;;;;;;5.20;2.83;;;11.60;92.80;;;;;;4967547;28;20033;-84
2022/05/31 02:58:32;;;;;;;4.13;2.10;;;11.70;92.90;;;;;;4967787;28;20058;-85
2022/05/31 03:00:58;;;;;;;2.55;1.60;;;12.00;93.00;;;;;;4985620;28;20455;-82
2022/05/31 03:03:24;;;;;;;6.70;2.40;;;11.60;93.00;;;;;;4985983;28;20035;-83
2022/05/31 03:05:50;;;;;;;3.53;1.70;;;11.60;93.00;;;;;;4990910;28;20035;-84
2022/05/31 03:08:17;;;;;;;4.50;2.20;;;11.60;93.10;;;;;;4972389;28;20027;-82
2022/05/31 03:10:47;;;;;;;3.88;2.15;;;11.60;93.20;;;;;;4983843;28;20031;-84
2022/05/31 03:13:17;;;;;;;3.53;1.80;;;11.60;93.10;;;;;;4987795;28;20049;-84
2022/05/31 03:15:44;;;;;;;9.85;6.45;;;11.70;93.30;;;;;;4985663;28;20050;-82
2022/05/31 03:18:14;;;;;;;5.43;2.33;;;12.40;93.40;;;;;;4988963;28;20042;-83
2022/05/31 03:20:53;;;;;;;6.32;1.65;;;11.50;93.40;;;;;;4970037;28;20039;-85
2022/05/31 03:23:34;;;;;;;4.25;1.70;;;11.40;93.60;;;;;;4963362;28;20050;-81
2022/05/31 03:26:03;;;;;;;3.20;1.85;;;11.40;93.50;;;;;;4961682;28;20034;-84
2022/05/31 03:28:31;;;;;;;5.60;2.22;;;11.90;93.50;;;;;;4965310;28;20032;-82
2022/05/31 03:30:57;;;;;;;4.25;1.52;;;11.40;93.50;;;;;;4983296;28;20570;-82
2022/05/31 03:33:22;;;;;;;3.13;1.80;;;11.40;93.60;;;;;;4964393;28;20063;-84
2022/05/31 03:35:48;;;;;;;3.45;1.90;;;11.40;93.70;;;;;;4958142;28;20478;-84
2022/05/31 03:38:14;;;;;;;3.42;1.65;;;11.30;93.70;;;;;;4964215;28;20042;-83
2022/05/31 03:40:58;;;;;;;3.55;1.92;;;11.30;93.80;;;;;;4962048;28;20022;-84
2022/05/31 03:43:25;;;;;;;3.33;1.95;;;11.30;93.90;;;;;;4964803;28;20150;-84
2022/05/31 03:45:51;;;;;;;3.03;2.05;;;11.30;93.90;;;;;;4967700;28;20026;-81
2022/05/31 03:48:17;;;;;;;3.50;1.80;;;12.30;94.20;;;;;;4963336;28;20030;-84
2022/05/31 03:50:44;;;;;;;4.22;2.03;;;11.40;93.80;;;;;;4979489;28;20042;-84
2022/05/31 03:53:13;;;;;;;4.18;1.90;;;11.30;93.70;;;;;;4965039;28;20055;-83
2022/05/31 03:55:41;;;;;;;4.70;2.10;;;11.30;93.80;;;;;;4981750;28;20039;-85
2022/05/31 03:58:08;;;;;;;3.20;2.00;;;11.40;93.90;;;;;;4980710;28;20026;-84
2022/05/31 04:00:34;;;;;;;3.70;1.80;;;12.50;94.20;;;;;;4966466;28;20047;-83
2022/05/31 04:03:00;;;;;;;4.82;1.80;;;11.40;93.80;;;;;;4989416;28;20026;-86
2022/05/31 04:05:26;;;;;;;3.90;2.10;;;11.40;93.70;;;;;;4989285;28;20038;-82
2022/05/31 04:08:01;;;;;;;3.78;1.90;;;11.40;93.90;;;;;;4983062;28;20070;-83
2022/05/31 04:10:29;;;;;;;4.47;2.05;;;11.40;93.90;;;;;;4977009;28;20058;-81
2022/05/31 04:12:55;;;;;;;3.92;2.53;;;11.40;93.90;;;;;;4981635;28;20030;-83
2022/05/31 04:15:21;;;;;;;4.30;1.85;;;11.40;94.00;;;;;;4966775;28;20046;-85
2022/05/31 04:17:47;;;;;;;3.25;2.00;;;12.50;94.30;;;;;;4968641;28;20037;-81
2022/05/31 04:20:12;;;;;;;5.28;2.05;;;11.50;94.10;;;;;;4977764;28;20035;-82
2022/05/31 04:22:38;;;;;;;3.38;1.75;;;11.40;94.00;;;;;;4976212;28;20023;-83
2022/05/31 04:25:04;;;;;;;3.42;1.70;;;11.40;94.00;;;;;;4965595;28;20034;-83
2022/05/31 04:27:30;;;;;;;3.70;1.95;;;11.40;94.00;;;;;;4968744;28;20031;-82
2022/05/31 04:29:56;;;;;;;4.45;1.75;;;11.30;94.10;;;;;;4973116;28;20101;-81
2022/05/31 04:32:22;;;;;;;3.92;2.10;;;11.40;94.30;;;;;;4981940;28;20134;-81
2022/05/31 04:34:48;;;;;;;4.28;1.92;;;12.40;94.50;;;;;;4981021;28;20059;-81
2022/05/31 04:37:14;;;;;;;4.18;2.22;;;12.30;94.60;;;;;;4979668;28;20031;-81
2022/05/31 04:39:40;;;;;;;4.30;2.08;;;11.40;94.50;;;;;;4963578;28;20031;-79
2022/05/31 04:42:08;;;;;;;4.75;2.30;;;11.50;94.50;;;;;;4984477;28;20090;-84
2022/05/31 04:44:34;;;;;;;5.10;2.40;;;11.50;94.50;;;;;;4984208;28;20098;-82
2022/05/31 04:46:59;;;;;;;4.90;2.53;;;11.50;94.70;;;;;;4966989;28;20023;-83
2022/05/31 04:49:25;;;;;;;5.05;2.40;;;11.50;94.70;;;;;;4981102;28;20102;-83
2022/05/31 04:51:51;;;;;;;4.13;2.00;;;11.60;94.90;;;;;;4968314;28;20045;-83
2022/05/31 04:54:17;;;;;;;4.90;2.42;;;11.40;94.70;;;;;;4970625;28;20019;-81
2022/05/31 04:56:43;;;;;;;6.85;2.88;;;11.70;95.00;;;;;;4974138;28;20154;-79
2022/05/31 04:59:09;;;;;;;4.57;2.53;;;11.40;95.30;;;;;;4975165;28;20042;-82
2022/05/31 05:01:36;;;;;;;5.75;2.50;;;12.40;95.50;;;;;;4986450;28;20034;-84
2022/05/31 05:04:03;;;;;;;6.80;2.60;;;13.70;95.80;;;;;;4971775;28;20030;-82
2022/05/31 05:06:29;;;;;;;5.32;2.47;;;11.50;95.20;;;;;;4971821;28;20091;-82
2022/05/31 05:08:55;;;;;;;8.27;2.70;;;11.50;95.30;;;;;;4995739;28;20066;-82
2022/05/31 05:11:22;;;;;;;3.75;2.13;;;12.00;95.50;;;;;;4972457;28;20034;-81
2022/05/31 05:13:50;;;;;;;4.05;1.90;;;12.50;95.50;;;;;;4978812;28;20078;-84
2022/05/31 05:16:17;;;;;;;4.43;2.00;;;11.80;95.00;;;;;;4974019;28;20031;-81
2022/05/31 05:18:43;;;;;;;2.72;1.65;;;11.90;94.60;;;;;;4989078;28;20038;-82
2022/05/31 05:21:12;;;;;;;4.43;1.90;;;12.80;94.90;;;;;;4986900;28;20058;-83
2022/05/31 05:23:38;;;;;;;3.70;1.80;;;13.00;93.50;;;;;;4967453;28;20029;-82
2022/05/31 05:26:04;;;;;;;4.50;2.45;;;14.10;91.50;;;;;;4980730;28;20570;-84
2022/05/31 05:31:27;;;;;;;2.53;1.60;;;14.90;88.80;;;;;;4989131;28;20069;-81
2022/05/31 05:33:54;;;;;;;3.20;1.90;;;14.50;89.30;;;;;;4992076;28;20023;-83
2022/05/31 05:36:20;;;;;;;5.32;2.10;;;15.30;90.40;;;;;;4985611;28;20022;-79
2022/05/31 05:38:47;;;;;;;4.82;1.83;;;14.00;90.70;;;;;;4988216;28;20035;-82
2022/05/31 05:41:13;;;;;;;5.90;1.70;;;14.40;90.50;;;;;;4984274;28;20493;-83
2022/05/31 05:43:40;;;;;;;4.78;1.98;;;14.70;90.10;;;;;;4969420;28;20466;-83
2022/05/31 05:46:18;;;;;;;9.15;1.60;;;15.50;88.00;;;;;;4976709;28;20038;-83
2022/05/31 05:48:44;;;;;;;2.97;1.73;;;16.10;86.60;;;;;;4991519;28;20034;-82
2022/05/31 05:51:16;;;;;;;3.83;1.90;;;16.20;84.90;;;;;;4986833;28;20034;-83
2022/05/31 05:53:41;;;;;;;3.92;1.60;;;16.20;84.50;;;;;;4969254;28;20038;-83
2022/05/31 05:56:08;;;;;;;3.42;1.63;;;17.00;81.90;;;;;;4991080;28;20030;-83
2022/05/31 05:58:34;;;;;;;3.63;1.50;;;18.20;81.30;;;;;;4987076;28;20031;-82
2022/05/31 06:01:00;;;;;;;2.97;1.60;;;18.10;79.60;;;;;;4966613;28;20038;-83
2022/05/31 06:03:37;;;;;;;5.05;1.80;;;17.70;78.90;;;;;;4978344;28;20037;-81
2022/05/31 06:06:03;;;;;;;3.17;1.73;;;17.90;79.00;;;;;;4979718;28;20031;-81
2022/05/31 06:08:50;;;;;;;2.63;1.70;;;18.00;78.30;;;;;;4970747;28;20041;-82
2022/05/31 06:11:21;;;;;;;2.85;1.55;;;18.40;78.00;;;;;;4980661;28;20034;-83
2022/05/31 06:13:52;;;;;;;5.20;1.70;;;18.00;77.80;;;;;;4976897;28;20487;-82
2022/05/31 06:16:21;;;;;;;6.70;1.67;;;17.70;79.10;;;;;;4968084;28;20034;-82
2022/05/31 06:18:54;;;;;;;7.05;2.08;;;17.90;78.10;;;;;;4977696;28;20147;-84
2022/05/31 06:21:22;;;;;;;5.65;1.80;;;17.40;78.80;;;;;;4962511;28;20026;-83
2022/05/31 06:23:49;;;;;;;2.72;1.70;;;16.90;80.20;;;;;;4956726;28;20024;-80
2022/05/31 06:26:16;;;;;;;10.95;1.88;;;16.70;80.70;;;;;;4983748;28;20031;-83
2022/05/31 06:28:43;;;;;;;3.22;1.58;;;16.80;80.80;;;;;;4965271;28;20035;-82
2022/05/31 06:31:08;;;;;;;3.53;1.63;;;16.80;80.90;;;;;;4967865;28;20553;-82
2022/05/31 06:33:34;;;;;;;4.28;1.70;;;16.80;80.90;;;;;;4963375;28;20030;-83
2022/05/31 06:36:01;;;;;;;3.67;1.60;;;17.10;81.80;;;;;;4962420;28;20046;-84
2022/05/31 06:38:28;;;;;;;3.28;1.52;;;17.60;81.40;;;;;;4960583;28;20027;-82
2022/05/31 06:40:53;;;;;;;4.78;1.83;;;16.90;80.50;;;;;;4980589;28;20031;-83
2022/05/31 06:43:19;;;;;;;4.18;1.70;;;16.60;81.70;;;;;;4964067;28;20506;-82
2022/05/31 06:45:44;;;;;;;4.28;1.90;;;17.30;82.40;;;;;;4962900;28;20173;-83
2022/05/31 06:48:10;;;;;;;3.90;1.50;;;16.40;82.20;;;;;;4981961;28;20037;-81
2022/05/31 06:50:36;;;;;;;3.50;2.00;;;16.10;83.90;;;;;;4958883;28;20039;-84
2022/05/31 06:58:30;;;;;;;5.15;2.03;;;16.00;85.40;;;;;;4973845;28;20041;-84
2022/05/31 07:00:56;;;;;;;5.55;1.77;;;16.00;85.40;;;;;;4969886;28;20095;-82
2022/05/31 07:03:21;;;;;;;4.45;1.70;;;15.90;86.10;;;;;;4960873;28;20094;-82
2022/05/31 07:05:47;;;;;;;2.78;1.65;;;16.00;85.90;;;;;;4961619;28;20294;-83
2022/05/31 07:08:13;;;;;;;2.22;1.50;;;16.40;86.20;;;;;;4965615;28;20023;-82
2022/05/31 07:10:39;;;;;;;3.67;1.60;;;16.00;85.30;;;;;;4969217;28;20055;-84
2022/05/31 07:13:05;;;;;;;3.33;1.85;;;15.90;84.90;;;;;;4964246;28;20026;-85
2022/05/31 07:15:31;;;;;;;3.47;1.67;;;16.10;85.20;;;;;;4995543;28;20042;-84
2022/05/31 07:17:57;;;;;;;2.22;1.50;;;16.10;84.50;;;;;;4977518;28;20019;-84
2022/05/31 07:20:23;;;;;;;4.47;1.88;;;16.30;84.30;;;;;;4994443;28;20062;-85
2022/05/31 07:22:51;;;;;;;3.72;1.60;;;16.30;84.10;;;;;;4971734;28;20487;-87
2022/05/31 07:25:17;;;;;;;4.47;1.60;;;16.70;84.80;;;;;;4966228;28;20023;-84
2022/05/31 07:27:43;;;;;;;3.08;1.33;;;16.40;83.80;;;;;;4976646;28;20038;-83
2022/05/31 07:30:09;;;;;;;2.83;1.60;;;16.50;84.00;;;;;;4962663;28;20030;-84
2022/05/31 07:32:35;;;;;;;3.70;1.60;;;16.60;84.50;;;;;;4956210;28;20046;-86
2022/05/31 07:35:00;;;;;;;2.47;1.40;;;16.60;83.40;;;;;;4963789;28;20039;-87
2022/05/31 07:37:26;;;;;;;3.78;1.60;;;16.50;83.90;;;;;;4962853;28;20031;-86
2022/05/31 07:39:52;;;;;;;3.45;1.98;;;16.50;83.60;;;;;;4958404;28;20035;-84
2022/05/31 07:42:17;;;;;;;3.15;1.35;;;16.60;83.40;;;;;;4944653;28;20562;-86
2022/05/31 07:44:43;;;;;;;3.28;1.50;;;16.70;83.20;;;;;;4977415;28;20035;-85
2022/05/31 07:47:09;;;;;;;3.70;2.10;;;16.90;83.50;;;;;;4968026;28;20089;-83
2022/05/31 07:49:38;;;;;;;2.58;1.50;;;17.20;83.50;;;;;;4967531;28;20035;-87
2022/05/31 07:52:08;;;;;;;2.65;1.70;;;17.70;83.60;;;;;;4969635;28;20289;-83
2022/05/31 07:54:37;;;;;;;2.58;1.38;;;17.40;82.00;;;;;;4980404;28;20035;-85
2022/05/31 07:57:06;;;;;;;3.88;2.55;;;17.50;82.30;;;;;;4982883;28;20035;-85
2022/05/31 07:59:34;;;;;;;2.83;1.67;;;17.60;81.00;;;;;;4992437;28;20082;-84
2022/05/31 08:02:01;;;;;;;5.35;2.08;;;17.80;81.40;;;;;;4963350;28;20055;-83
2022/05/31 08:04:27;;;;;;;2.30;1.33;;;17.80;81.50;;;;;;4975028;28;20038;-85
2022/05/31 08:06:59;;;;;;;2.70;1.40;;;18.80;81.10;;;;;;4956399;28;20117;-85
2022/05/31 08:09:25;;;;;;;3.00;1.42;;;17.70;80.60;;;;;;4966959;28;20122;-87
2022/05/31 08:11:51;;;;;;;3.50;1.70;;;17.70;81.30;;;;;;4957367;28;20031;-86
2022/05/31 08:14:17;;;;;;;3.72;1.23;;;18.40;80.70;;;;;;4975116;28;20048;-84
2022/05/31 08:16:42;;;;;;;2.80;1.52;;;18.10;79.80;;;;;;4957162;28;20035;-85
2022/05/31 08:19:08;;;;;;;4.18;1.33;;;18.10;80.20;;;;;;4977145;28;20025;-84
2022/05/31 08:21:34;;;;;;;3.20;1.70;;;18.10;79.70;;;;;;4980626;28;20046;-86
2022/05/31 08:24:11;;;;;;;2.83;1.23;;;18.10;79.60;;;;;;4987831;28;20042;-84
2022/05/31 08:26:37;;;;;;;2.42;1.48;;;18.30;78.90;;;;;;4966217;28;20101;-83
2022/05/31 08:29:03;;;;;;;3.03;1.50;;;18.80;80.00;;;;;;4960262;28;20047;-84
2022/05/31 08:31:36;;;;;;;5.13;1.85;;;18.10;79.40;;;;;;4973907;28;20039;-84
2022/05/31 08:34:04;;;;;;;2.83;1.60;;;18.40;80.50;;;;;;4980953;28;20019;-86
2022/05/31 08:36:30;;;;;;;3.28;1.70;;;18.50;79.80;;;;;;4964919;28;20043;-85
2022/05/31 08:38:55;;;;;;;4.15;1.70;;;18.60;79.90;;;;;;4962059;28;20031;-86
2022/05/31 08:41:24;;;;;;;6.25;1.65;;;18.80;79.40;;;;;;4964247;28;20506;-84
2022/05/31 08:43:50;;;;;;;3.00;1.48;;;19.00;79.00;;;;;;4963385;28;20094;-85
2022/05/31 08:46:25;;;;;;;3.58;1.70;;;18.90;77.50;;;;;;4975533;28;20114;-86
2022/05/31 08:48:59;;;;;;;3.63;1.85;;;18.90;76.90;;;;;;4961250;28;20031;-83
2022/05/31 08:51:53;;;;;;;1.98;1.38;;;19.10;77.00;;;;;;4975932;28;20038;-85
2022/05/31 08:57:48;;;;;;;5.23;1.70;;;19.70;76.40;;;;;;4977206;28;20043;-84
2022/05/31 09:00:19;;;;;;;3.17;1.55;;;19.70;75.90;;;;;;4962203;28;20533;-83
2022/05/31 09:02:57;;;;;;;4.05;1.70;;;19.80;75.60;;;;;;4957513;28;20031;-84
2022/05/31 09:05:34;;;;;;;4.55;1.80;;;19.90;75.40;;;;;;4980204;28;20028;-86
2022/05/31 09:08:19;;;;;;;4.50;2.08;;;19.80;75.30;;;;;;4961660;28;20042;-84
2022/05/31 09:11:10;;;;;;;3.03;1.67;;;19.80;75.70;;;;;;4963209;28;20034;-84
2022/05/31 09:13:49;;;;;;;;;;;19.90;75.80;;;;;;4962976;28;20026;-84
2022/05/31 09:16:18;;;;;;;2.72;1.60;;;20.00;75.00;;;;;;4956942;28;19918;-86
2022/05/31 09:18:52;;;;;;;5.45;1.60;;;20.00;75.10;;;;;;4963232;28;20019;-84
2022/05/31 09:21:34;;;;;;;2.60;1.58;;;20.20;74.80;;;;;;4979637;28;20134;-84
2022/05/31 09:24:00;;;;;;;4.15;1.70;;;20.40;75.10;;;;;;4959594;28;20050;-84
2022/05/31 09:26:53;;;;;;;3.88;2.00;;;20.20;75.00;;;;;;4959390;28;20027;-84
2022/05/31 09:29:21;;;;;;;5.85;1.90;;;20.40;74.70;;;;;;4962475;28;20031;-83
2022/05/31 09:32:02;;;;;;;3.70;1.65;;;20.50;74.90;;;;;;4958458;28;20054;-84
2022/05/31 09:34:37;;;;;;;4.00;1.58;;;20.70;74.40;;;;;;4960864;28;20022;-83
2022/05/31 09:37:28;;;;;;;3.35;1.60;;;20.80;74.10;;;;;;4964937;28;20029;-84
2022/05/31 09:39:59;;;;;;;4.28;1.90;;;20.80;73.40;;;;;;4957181;28;20118;-84
2022/05/31 09:42:32;;;;;;;2.45;1.52;;;20.80;74.20;;;;;;4986108;28;20035;-83
2022/05/31 09:45:07;;;;;;;5.60;1.80;;;21.00;74.30;;;;;;4971152;28;20039;-85
2022/05/31 09:47:33;;;;;;;2.70;1.70;;;21.30;73.10;;;;;;4968755;28;20066;-84
2022/05/31 09:49:59;;;;;;;4.78;1.80;;;21.50;73.00;;;;;;4985436;28;20038;-83
2022/05/31 09:52:30;;;;;;;2.97;1.80;;;21.50;74.30;;;;;;4985502;28;20061;-84
2022/05/31 09:58:23;;;;;;;3.65;1.80;;;21.50;69.90;;;;;;4984288;28;20187;-82
2022/05/31 10:01:05;;;;;;;2.22;1.20;;;21.60;70.00;;;;;;4963995;28;20541;-85
2022/05/31 10:03:37;;;;;;;2.70;1.50;;;21.50;68.30;;;;;;4966027;28;20031;-83
2022/05/31 10:06:16;;;;;;;5.40;2.00;;;21.40;68.40;;;;;;4985547;28;20387;-81
2022/05/31 10:08:43;;;;;;;3.00;1.40;;;21.40;68.50;;;;;;4987621;28;20032;-83
2022/05/31 10:11:13;;;;;;;3.53;1.73;;;21.40;68.00;;;;;;4983508;28;20321;-83
2022/05/31 10:14:00;;;;;;;7.82;2.00;;;21.80;69.70;;;;;;4982495;28;20034;-84
2022/05/31 10:16:34;;;;;;;4.03;1.42;;;21.70;69.70;;;;;;4984050;28;20062;-82
2022/05/31 10:22:24;;;;;;;2.60;1.20;;;22.20;61.30;;;;;;5036312;23;20053;-83
2022/05/31 10:24:52;;;;;;;3.27;1.50;;;22.00;61.50;;;;;;5014376;28;20034;-82
2022/05/31 10:27:21;;;;;;;3.38;1.30;;;21.30;60.50;;;;;;5018989;28;20030;-84
2022/05/31 10:30:06;;;;;;;4.55;1.55;;;22.30;61.60;;;;;;5019300;28;20014;-81
2022/05/31 10:32:59;;;;;;;4.57;1.50;;;20.90;62.00;;;;;;5018516;28;20038;-83
2022/05/31 10:35:40;;;;;;;3.10;1.40;;;22.40;61.90;;;;;;5030544;28;20041;-82
2022/05/31 10:38:12;;;;;;;2.45;1.70;;;22.20;62.00;;;;;;5009308;28;20041;-81
2022/05/31 10:41:00;;;;;;;3.53;1.70;;;22.10;61.40;;;;;;5008625;28;20060;-81
2022/05/31 10:43:49;;;;;;;4.55;1.80;;;22.20;62.30;;;;;;5009200;28;20038;-82
2022/05/31 10:46:31;;;;;;;2.28;1.20;;;22.10;62.30;;;;;;5003171;28;20121;-81
2022/05/31 10:49:01;;;;;;;3.92;1.50;;;22.10;62.30;;;;;;5005854;28;20034;-80
2022/05/31 10:51:50;;;;;;;3.53;1.75;;;22.10;63.30;;;;;;5004513;28;20073;-81
2022/05/31 10:54:26;;;;;;;3.28;1.45;;;22.30;62.70;;;;;;5007672;28;20121;-81
2022/05/31 10:57:39;;;;;;;3.75;1.77;;;22.80;62.10;;;;;;5007142;28;20036;-83
2022/05/31 11:00:12;;;;;;;2.85;1.30;;;23.00;59.20;;;;;;5009266;28;20038;-80
2022/05/31 11:03:04;;;;;;;3.60;1.80;;;22.70;58.30;;;;;;4993189;28;20027;-82
2022/05/31 11:05:36;;;;;;;6.68;1.83;;;22.40;58.60;;;;;;4998203;28;20062;-81
2022/05/31 11:14:15;;;;;;;6.55;2.00;;;22.30;57.10;;;;;;4997317;28;20057;-81
2022/05/31 11:17:09;;;;;;;2.70;1.35;;;22.70;54.80;;;;;;4990591;28;20482;-81
2022/05/31 11:20:18;;;;;;;5.97;1.25;;;22.80;54.40;;;;;;4969038;28;20034;-81
2022/05/31 11:22:59;;;;;;;3.00;1.25;;;23.10;53.90;;;;;;4935620;28;20129;-81
2022/05/31 11:25:41;;;;;;;3.25;1.15;;;22.80;53.90;;;;;;5003427;28;20409;-81
2022/05/31 11:28:54;;;;;;;2.72;1.50;;;24.20;56.50;;;;;;4993985;28;20030;-80
2022/05/31 11:31:33;;;;;;;3.47;1.70;;;22.90;55.10;;;;;;5006021;28;20038;-80
2022/05/31 11:34:15;;;;;;;5.28;1.65;;;23.20;56.80;;;;;;4988680;28;20227;-81
2022/05/31 11:37:14;;;;;;;3.63;1.50;;;23.00;56.90;;;;;;4992833;28;20037;-81
2022/05/31 11:40:16;;;;;;;3.60;1.65;;;20.80;56.10;;;;;;4996126;28;20452;-81
2022/05/31 11:43:11;;;;;;;6.43;2.50;;;22.70;58.20;;;;;;5014269;28;20053;-81
2022/05/31 11:46:01;;;;;;;8.80;4.10;;;22.80;58.30;;;;;;4993718;28;20041;-81
2022/05/31 11:48:42;;;;;;;55.70;27.95;;;23.00;59.20;;;;;;4995636;28;20038;-81
2022/05/31 11:51:27;;;;;;;5.70;2.67;;;23.10;59.60;;;;;;4990878;28;20042;-81
2022/05/31 11:54:27;;;;;;;4.25;1.88;;;23.10;58.20;;;;;;5004654;28;20030;-80
2022/05/31 11:57:47;;;;;;;4.97;2.30;;;23.20;58.70;;;;;;4996470;28;20033;-83
2022/05/31 12:00:15;;;;;;;3.83;1.80;;;23.00;58.90;;;;;;5000557;28;20041;-82
2022/05/31 12:02:58;;;;;;;4.75;1.77;;;22.60;59.80;;;;;;5010657;28;20042;-82
2022/05/31 12:05:54;;;;;;;4.93;2.00;;;22.70;59.00;;;;;;5001078;28;20057;-82
2022/05/31 12:08:28;;;;;;;4.25;1.80;;;22.90;58.70;;;;;;5006437;28;20022;-81
2022/05/31 12:11:02;;;;;;;3.17;1.48;;;23.60;59.10;;;;;;4988927;28;20034;-81
2022/05/31 12:13:36;;;;;;;7.68;1.60;;;23.00;58.90;;;;;;4998255;28;20030;-81
2022/05/31 12:16:05;;;;;;;2.70;1.40;;;23.10;58.30;;;;;;5001512;28;20026;-81
2022/05/31 12:19:02;;;;;;;3.30;1.80;;;23.50;58.90;;;;;;4991025;28;20034;-79
2022/05/31 12:21:35;;;;;;;3.28;1.52;;;23.00;57.80;;;;;;5007557;28;20034;-80
2022/05/31 12:24:12;;;;;;;5.00;1.80;;;22.80;57.30;;;;;;5013523;28;20097;-80
2022/05/31 12:27:10;;;;;;;4.28;1.83;;;22.80;58.40;;;;;;5003969;28;20033;-80
2022/05/31 12:30:02;;;;;;;5.07;1.67;;;22.80;57.90;;;;;;4988451;28;20125;-80
2022/05/31 12:32:41;;;;;;;5.88;2.00;;;22.80;56.60;;;;;;4992271;28;20054;-82
2022/05/31 12:35:28;;;;;;;3.00;1.40;;;22.80;56.80;;;;;;4995592;28;20084;-81
2022/05/31 12:38:07;;;;;;;3.53;1.50;;;22.90;57.00;;;;;;5000535;28;20030;-81
2022/05/31 12:40:38;;;;;;;4.78;1.17;;;22.80;56.00;;;;;;4996562;28;20063;-81
2022/05/31 12:43:12;;;;;;;2.72;1.40;;;22.80;56.10;;;;;;5000287;28;20036;-81
2022/05/31 12:45:49;;;;;;;4.43;1.90;;;23.00;56.80;;;;;;4995560;28;20049;-80
2022/05/31 12:48:15;;;;;;;2.08;1.20;;;23.10;56.60;;;;;;5018271;28;20185;-81
2022/05/31 12:50:55;;;;;;;9.38;1.40;;;23.50;57.50;;;;;;5000047;28;20038;-80
2022/05/31 12:53:39;;;;;;;5.50;1.55;;;23.30;56.40;;;;;;4998262;28;20023;-81
2022/05/31 12:56:08;;;;;;;3.85;1.42;;;22.00;56.50;;;;;;5016338;28;20026;-81
2022/05/31 12:58:37;;;;;;;3.88;1.48;;;23.20;56.20;;;;;;5009401;28;20023;-81
2022/05/31 13:01:28;;;;;;;5.25;1.77;;;23.00;55.70;;;;;;4996239;28;20086;-81
2022/05/31 13:04:15;;;;;;;7.05;2.20;;;22.90;56.20;;;;;;4996120;28;20054;-80
2022/05/31 13:07:04;;;;;;;3.17;1.70;;;22.70;56.50;;;;;;4997599;28;20046;-81
2022/05/31 13:09:49;;;;;;;3.78;1.60;;;22.60;57.00;;;;;;4994961;28;20173;-82
2022/05/31 13:20:59;;;;;;;2.53;1.80;;;22.60;57.70;;;;;;4999887;28;20590;-80
2022/05/31 13:23:35;;;;;;;3.92;1.85;;;21.40;57.20;;;;;;5018359;28;20090;-81
2022/05/31 13:26:20;;;;;;;2.88;1.42;;;22.80;56.30;;;;;;5000728;28;20026;-81
2022/05/31 13:28:59;;;;;;;3.00;1.40;;;23.20;55.90;;;;;;4985683;28;20034;-81
2022/05/31 13:31:28;;;;;;;5.00;1.80;;;25.20;57.00;;;;;;5000868;28;20038;-80
2022/05/31 13:33:59;;;;;;;4.18;1.70;;;23.30;55.50;;;;;;5003117;28;20057;-82
2022/05/31 13:36:28;;;;;;;5.90;1.60;;;23.50;55.50;;;;;;5003233;28;20034;-80
2022/05/31 13:39:02;;;;;;;4.18;1.40;;;23.30;55.60;;;;;;4992717;28;20027;-80
2022/05/31 13:41:29;;;;;;;2.10;1.30;;;23.50;55.70;;;;;;4994054;28;20045;-80
2022/05/31 13:44:01;;;;;;;4.95;1.90;;;23.70;55.10;;;;;;5000818;28;20053;-81
2022/05/31 13:46:43;;;;;;;2.83;1.40;;;23.90;54.30;;;;;;5000520;28;20034;-80